Boise, ID (83709)

11:02 PM MDT on July 21, 2017 (GMT -0600)
Five Mile Estates | | Change Station

Elev 2730 ft 43.57 °N, 116.32 °W | Updated 5 seconds ago

Clear
Clear
69.8 °F
Feels Like 69.8 °F
N
0.0
Wind Variable Wind from SSW
Gusts 0.0 mph

Today
High -- | Low -- °F
--% Chance of Precip.
Yesterday
High -- | Low -- °F
Precip. -- in
Pressure 29.91 in
Visibility 10.0 miles
Clouds Clear
Dew Point 50 °F
Humidity 50%
Rainfall 0.00 in
Snow Depth Not available.
6:23 AM 9:19 PM
Waning Crescent, 2% visible
METAR KBOI 220453Z 24004KT 10SM CLR 25/05 A3000 RMK AO2 SLP129 T02500050
Pressure 29.91 in
Visibility 10.0 miles
Clouds Clear
Dew Point 50 °F
Humidity 50%
Rainfall 0.00 in
Snow Depth Not available.
6:23 AM 9:19 PM
Waning Crescent, 2% visible
METAR KBOI 220453Z 24004KT 10SM CLR 25/05 A3000 RMK AO2 SLP129 T02500050

Get Severe Weather Alerts

Thanks for signing up!

Be on the lookout for a verification email in your inbox.

You'll start receiving the daily forecast at 6 AM.

×

10-Day Weather Forecast

Almanac

Astronomy

Jul. 21, 2017 Rise Set
Actual Time
Civil Twilight
Nautical Twilight
Astronomical Twilight
Moon
Length of Visible Light
Length of Day
Tomorrow will be .
, % of the Moon is Illuminated

Today's Extremes

State Highs State Lows

Community

WunderPhotos

Category 6

Welcome to Category 6. This is the collective home for Weather Underground's featured writeups by Dr. Jeff Masters (right), Bob Henson (left), Chris Burt, and other regular contributors.

Nearby

Air Quality

  Air Quality AQ Index Pollutant
Not available.

Snow Depth

Station Depth Elevation

Earthquake Activity

City Distance Mag. Time & Date
Minimum magnitude displayed is 2.5.

Coastal Water Temperatures

Place Temperature

Stations

Nearby Weather Stations

Station Location Temp. Windchill Dew Point Humidity Wind Precip. Elev Updated Type
                   

Watches & Warnings

There are currently no watches in effect.